createdAt,value
2023-04-01T00:10:05.849Z,93.58
2023-04-01T00:40:08.711Z,93.98
2023-04-01T01:10:12.888Z,94.29
2023-04-01T01:40:15.757Z,95.01
2023-04-01T02:10:19.452Z,95.11
2023-04-01T02:40:22.296Z,95.08
2023-04-01T03:10:26.200Z,95.43
2023-04-01T03:40:29.072Z,95.73
2023-04-01T04:10:33.377Z,95.69
2023-04-01T04:40:36.208Z,96.23
2023-04-01T05:10:39.802Z,96.40
2023-04-01T05:40:42.649Z,96.95
2023-04-01T06:10:47.300Z,97.12
2023-04-01T06:40:50.147Z,97.35
2023-04-01T07:10:54.627Z,97.41
2023-04-01T07:40:57.561Z,97.54
2023-04-01T08:11:01.270Z,97.94
2023-04-01T08:41:04.102Z,97.61
2023-04-01T09:11:07.920Z,97.63
2023-04-01T09:41:10.971Z,97.12
2023-04-01T10:11:18.063Z,96.40
2023-04-01T10:41:20.912Z,96.27
2023-04-01T11:11:25.807Z,96.18
2023-04-01T11:41:28.852Z,95.92
2023-04-01T12:11:32.941Z,96.15
2023-04-01T12:41:35.842Z,96.88
2023-04-01T13:11:39.422Z,97.26
2023-04-01T13:41:42.783Z,95.68
2023-04-01T14:11:45.982Z,95.28
2023-04-01T14:41:49.276Z,94.44
2023-04-01T15:11:53.212Z,94.25
2023-04-01T15:41:56.591Z,93.99
2023-04-01T16:12:00.184Z,94.14
2023-04-01T16:42:03.509Z,93.52
2023-04-01T17:12:07.144Z,93.32
2023-04-01T17:42:10.131Z,93.30
2023-04-01T18:12:14.071Z,91.97
2023-04-01T18:42:16.927Z,91.61
2023-04-01T19:12:21.676Z,90.99
2023-04-01T19:42:24.577Z,90.82
2023-04-01T20:12:28.943Z,91.74
2023-04-01T20:42:31.813Z,92.00
2023-04-01T21:12:34.965Z,91.18
2023-04-01T21:42:37.847Z,91.03
2023-04-01T22:12:41.932Z,90.90
2023-04-01T22:42:44.841Z,90.57
2023-04-01T23:12:49.534Z,90.39
2023-04-01T23:42:52.497Z,89.52
